Tzoanna Vi — SYHY — position and weather

sailwx.info

Track history (hours):
 
Tides and Currents Weather Stations Pressure Air Temp Water Temp Dewpoint Dewpoint Depression Visibility Wind Speed Wind Dir Waves Ship Positions

Tzoanna Vi

Last reported at 2017-Jan-14 09:30 UTC. Time now 2017-Jan-17 21:23 UTC.
Position N 37°48' E 024°37'.

Length 84 m; draft 5.6 m.

Type: Cargo ship. MMSI: 237991700.

Date/timePositionNaut miles runAvg speedWind from/ knotsBaromVisibWave heightAir tempDewpointWater temp
2017-Jan-14 09:30N 37°48' E 024°37'11 8.0
2017-Jan-14 08:05N 37°37' E 024°38'4 8.4
2017-Jan-14 07:33N 37°33' E 024°39'8 8.1
2017-Jan-14 06:33N 37°25' E 024°41'50 1.1
2017-Jan-12 07:18N 37°28' E 023°38'7 9.5
2017-Jan-12 06:33N 37°34' E 023°33'1010.1
2017-Jan-12 05:33N 37°41' E 023°25'6 6.3
2017-Jan-12 04:33N 37°47' E 023°28'0 0.4
2017-Jan-12 03:32N 37°47' E 023°28'0 0.0
2017-Jan-12 02:32N 37°47' E 023°28'0 0.0
2017-Jan-12 01:32N 37°47' E 023°28'0 0.0
2017-Jan-12 00:32N 37°47' E 023°28'0 0.1
2017-Jan-11 23:32N 37°47' E 023°28'0 0.0
2017-Jan-11 22:32N 37°47' E 023°28'0 0.0
2017-Jan-11 21:33N 37°47' E 023°28'0 0.0
2017-Jan-11 20:33N 37°47' E 023°28'0 0.0
2017-Jan-11 19:33N 37°47' E 023°28'0 0.0
2017-Jan-11 18:33N 37°47' E 023°28'0 0.0
2017-Jan-11 17:32N 37°47' E 023°28'0 0.0
2017-Jan-11 16:29N 37°47' E 023°28'0 0.0
2017-Jan-11 15:32N 37°47' E 023°28'0 0.1
2017-Jan-11 14:32N 37°47' E 023°28'0 0.1
2017-Jan-11 13:32N 37°47' E 023°28'0 0.0
2017-Jan-11 12:33N 37°47' E 023°28'0 0.0
2017-Jan-11 11:32N 37°47' E 023°28'0 0.0
2017-Jan-11 10:32N 37°47' E 023°28'0 0.1
2017-Jan-11 09:29N 37°47' E 023°28'0 0.1
2017-Jan-11 08:33N 37°47' E 023°28'8 8.2
2017-Jan-11 07:33N 37°51' E 023°19'10 9.7
2017-Jan-11 06:33N 37°53' E 023°07'23 7.8
2017-Jan-11 03:32N 38°05' E 022°41'9 0.3
2017-Jan-09 16:11N 38°10' E 022°31'8 8.4
2017-Jan-09 15:14N 38°06' E 022°40'8 8.7
2017-Jan-09 14:21N 38°02' E 022°48'12 6.2
2017-Jan-09 12:25N 37°55' E 023°01'4 4.2
2017-Jan-09 11:33N 37°53' E 023°05'6 6.0
2017-Jan-09 10:33N 37°53' E 023°12'7 7.2
2017-Jan-09 09:33N 37°52' E 023°21'8 8.1
2017-Jan-09 08:34N 37°50' E 023°31'7 7.3
2017-Jan-09 07:33N 37°49' E 023°40'8 7.9
2017-Jan-09 06:33N 37°42' E 023°45'8 7.6
2017-Jan-09 05:33N 37°39' E 023°54'13 6.7
2017-Jan-09 03:33N 37°48' E 024°06'9 8.7
2017-Jan-09 02:33N 37°57' E 024°06'9 8.7
2017-Jan-09 01:32N 38°05' E 024°06'19 7.9
2017-Jan-08 23:10N 38°20' E 023°51'  
Track history (hours):
 
Tides and Currents Weather Stations Pressure Air Temp Water Temp Dewpoint Dewpoint Depression Visibility Wind Speed Wind Dir Waves Ship Positions

Tzoanna Vi

Last reported at 2017-Jan-14 09:30 UTC. Time now 2017-Jan-17 21:23 UTC.
Position N 37°48' E 024°37'.

Length 84 m; draft 5.6 m.

Type: Cargo ship. MMSI: 237991700.

Date/timePositionNaut miles runAvg speedWind from/ knotsBaromVisibWave heightAir tempDewpointWater temp
2017-Jan-14 09:30N 37°48' E 024°37'11 8.0
2017-Jan-14 08:05N 37°37' E 024°38'4 8.4
2017-Jan-14 07:33N 37°33' E 024°39'8 8.1
2017-Jan-14 06:33N 37°25' E 024°41'50 1.1
2017-Jan-12 07:18N 37°28' E 023°38'7 9.5
2017-Jan-12 06:33N 37°34' E 023°33'1010.1
2017-Jan-12 05:33N 37°41' E 023°25'6 6.3
2017-Jan-12 04:33N 37°47' E 023°28'0 0.4
2017-Jan-12 03:32N 37°47' E 023°28'0 0.0
2017-Jan-12 02:32N 37°47' E 023°28'0 0.0
2017-Jan-12 01:32N 37°47' E 023°28'0 0.0
2017-Jan-12 00:32N 37°47' E 023°28'0 0.1
2017-Jan-11 23:32N 37°47' E 023°28'0 0.0
2017-Jan-11 22:32N 37°47' E 023°28'0 0.0
2017-Jan-11 21:33N 37°47' E 023°28'0 0.0
2017-Jan-11 20:33N 37°47' E 023°28'0 0.0
2017-Jan-11 19:33N 37°47' E 023°28'0 0.0
2017-Jan-11 18:33N 37°47' E 023°28'0 0.0
2017-Jan-11 17:32N 37°47' E 023°28'0 0.0
2017-Jan-11 16:29N 37°47' E 023°28'0 0.0
2017-Jan-11 15:32N 37°47' E 023°28'0 0.1
2017-Jan-11 14:32N 37°47' E 023°28'0 0.1
2017-Jan-11 13:32N 37°47' E 023°28'0 0.0
2017-Jan-11 12:33N 37°47' E 023°28'0 0.0
2017-Jan-11 11:32N 37°47' E 023°28'0 0.0
2017-Jan-11 10:32N 37°47' E 023°28'0 0.1
2017-Jan-11 09:29N 37°47' E 023°28'0 0.1
2017-Jan-11 08:33N 37°47' E 023°28'8 8.2
2017-Jan-11 07:33N 37°51' E 023°19'10 9.7
2017-Jan-11 06:33N 37°53' E 023°07'23 7.8
2017-Jan-11 03:32N 38°05' E 022°41'9 0.3
2017-Jan-09 16:11N 38°10' E 022°31'8 8.4
2017-Jan-09 15:14N 38°06' E 022°40'8 8.7
2017-Jan-09 14:21N 38°02' E 022°48'12 6.2
2017-Jan-09 12:25N 37°55' E 023°01'4 4.2
2017-Jan-09 11:33N 37°53' E 023°05'6 6.0
2017-Jan-09 10:33N 37°53' E 023°12'7 7.2
2017-Jan-09 09:33N 37°52' E 023°21'8 8.1
2017-Jan-09 08:34N 37°50' E 023°31'7 7.3
2017-Jan-09 07:33N 37°49' E 023°40'8 7.9
2017-Jan-09 06:33N 37°42' E 023°45'8 7.6
2017-Jan-09 05:33N 37°39' E 023°54'13 6.7
2017-Jan-09 03:33N 37°48' E 024°06'9 8.7
2017-Jan-09 02:33N 37°57' E 024°06'9 8.7
2017-Jan-09 01:32N 38°05' E 024°06'19 7.9
2017-Jan-08 23:10N 38°20' E 023°51'  

Dump ship's entire track history